createdAt,value
2023-02-04T00:02:25.369Z,5.68
2023-02-04T00:04:51.972Z,5.05
2023-02-04T00:07:18.448Z,6.93
2023-02-04T00:09:49.843Z,6.32
2023-02-04T00:12:16.466Z,5.18
2023-02-04T00:14:42.876Z,4.63
2023-02-04T00:17:11.425Z,5.20
2023-02-04T00:19:37.819Z,5.75
2023-02-04T00:22:04.606Z,6.18
2023-02-04T00:24:31.064Z,4.70
2023-02-04T00:26:57.463Z,5.88
2023-02-04T00:29:23.876Z,7.07
2023-02-04T00:31:50.343Z,5.68
2023-02-04T00:34:18.173Z,5.40
2023-02-04T00:36:45.099Z,7.22
2023-02-04T00:39:11.511Z,5.82
2023-02-04T00:41:37.885Z,5.97
2023-02-04T00:44:04.482Z,5.32
2023-02-04T00:46:30.886Z,5.55
2023-02-04T00:48:57.266Z,5.03
2023-02-04T00:51:23.635Z,6.63
2023-02-04T00:53:49.990Z,5.40
2023-02-04T00:56:16.354Z,6.38
2023-02-04T00:58:42.721Z,6.65
2023-02-04T01:01:09.218Z,5.97
2023-02-04T01:03:35.602Z,5.53
2023-02-04T01:06:01.982Z,6.75
2023-02-04T01:08:28.346Z,6.60
2023-02-04T01:10:54.738Z,6.80
2023-02-04T01:13:21.120Z,5.68
2023-02-04T01:15:47.496Z,5.75
2023-02-04T01:18:13.932Z,5.75
2023-02-04T01:20:40.309Z,5.05
2023-02-04T01:23:06.675Z,6.25
2023-02-04T01:25:33.058Z,5.93
2023-02-04T01:27:59.480Z,6.72
2023-02-04T01:30:25.948Z,6.25
2023-02-04T01:32:52.374Z,6.90
2023-02-04T01:35:18.756Z,6.40
2023-02-04T01:37:45.137Z,5.95
2023-02-04T01:40:11.914Z,7.18
2023-02-04T01:42:38.331Z,5.22
2023-02-04T01:45:06.378Z,7.65
2023-02-04T01:47:33.276Z,6.93
2023-02-04T01:50:00.165Z,7.28
2023-02-04T01:52:28.099Z,5.55
2023-02-04T01:54:54.502Z,5.75
2023-02-04T01:57:20.979Z,7.10
2023-02-04T01:59:48.022Z,6.38
2023-02-04T02:02:45.213Z,6.03
2023-02-04T02:05:16.236Z,6.10
2023-02-04T02:07:42.790Z,5.72
2023-02-04T02:10:11.214Z,5.35
2023-02-04T02:12:37.987Z,6.68
2023-02-04T02:15:04.754Z,6.18
2023-02-04T02:17:31.413Z,6.45
2023-02-04T02:19:57.821Z,5.85
2023-02-04T02:23:02.997Z,6.35
2023-02-04T02:25:29.707Z,7.00
2023-02-04T02:27:57.276Z,7.60
2023-02-04T02:30:23.826Z,7.60
2023-02-04T02:32:51.253Z,5.35
2023-02-04T02:35:18.054Z,6.20
2023-02-04T02:37:44.576Z,5.93
2023-02-04T02:40:11.954Z,6.40
2023-02-04T02:42:38.444Z,6.10
2023-02-04T02:45:08.538Z,6.43
2023-02-04T02:47:34.933Z,6.82
2023-02-04T02:50:01.292Z,5.78
2023-02-04T02:52:27.697Z,5.47
2023-02-04T02:54:54.134Z,6.47
2023-02-04T02:57:21.785Z,5.65
2023-02-04T02:59:48.564Z,6.45
2023-02-04T03:02:21.980Z,6.22
2023-02-04T03:04:51.557Z,6.78
2023-02-04T03:07:19.549Z,5.80
2023-02-04T03:09:45.926Z,5.60
2023-02-04T03:12:12.387Z,5.90
2023-02-04T03:14:39.002Z,8.00
2023-02-04T03:17:07.373Z,5.88
2023-02-04T03:19:36.152Z,4.97
2023-02-04T03:22:03.866Z,5.55
2023-02-04T03:24:30.463Z,5.22
2023-02-04T03:26:56.891Z,6.18
2023-02-04T03:29:23.254Z,7.55
2023-02-04T03:31:49.772Z,7.32
2023-02-04T03:34:16.270Z,5.72
2023-02-04T03:36:42.685Z,4.88
2023-02-04T03:39:09.037Z,6.57
2023-02-04T03:41:35.405Z,6.15
2023-02-04T03:44:01.768Z,5.40
2023-02-04T03:46:28.673Z,6.97
2023-02-04T03:48:55.226Z,6.65
2023-02-04T03:51:21.587Z,5.32
2023-02-04T03:53:47.981Z,6.22
2023-02-04T03:56:14.406Z,6.32
2023-02-04T03:58:40.784Z,5.47
2023-02-04T04:01:07.166Z,5.15
2023-02-04T04:03:33.583Z,5.95
2023-02-04T04:05:59.967Z,6.00
2023-02-04T04:08:26.432Z,5.65
2023-02-04T04:10:52.792Z,7.50
2023-02-04T04:13:19.194Z,5.70
2023-02-04T04:15:45.651Z,5.55
2023-02-04T04:18:12.077Z,6.43
2023-02-04T04:20:38.470Z,6.88
2023-02-04T04:23:04.875Z,5.28
2023-02-04T04:25:31.253Z,6.43
2023-02-04T04:27:57.738Z,7.05
2023-02-04T04:30:24.111Z,6.35
2023-02-04T04:32:50.502Z,6.72
2023-02-04T04:35:16.924Z,4.93
2023-02-04T04:37:43.304Z,6.63
2023-02-04T04:40:11.655Z,5.22
2023-02-04T04:42:38.069Z,6.45
2023-02-04T04:45:09.031Z,5.93
2023-02-04T04:47:35.421Z,6.57
2023-02-04T04:50:01.857Z,6.93
2023-02-04T04:52:28.233Z,6.38
2023-02-04T04:54:54.828Z,6.60
2023-02-04T04:57:21.301Z,6.07
2023-02-04T04:59:47.678Z,6.40
2023-02-04T05:02:14.115Z,8.23
2023-02-04T05:04:40.551Z,6.15
2023-02-04T05:07:06.942Z,6.05
2023-02-04T05:09:33.336Z,5.90
2023-02-04T05:11:59.753Z,5.38
2023-02-04T05:14:26.185Z,9.52
2023-02-04T05:16:52.665Z,5.85
2023-02-04T05:19:19.045Z,6.47
2023-02-04T05:21:45.452Z,6.65
2023-02-04T05:24:11.937Z,6.38
2023-02-04T05:26:38.387Z,5.85
2023-02-04T05:29:04.819Z,5.93
2023-02-04T05:31:31.476Z,6.15
2023-02-04T05:33:57.940Z,7.10
2023-02-04T05:36:24.374Z,5.47
2023-02-04T05:38:50.847Z,6.50
2023-02-04T05:41:17.239Z,6.53
2023-02-04T05:43:43.825Z,6.88
2023-02-04T05:46:10.289Z,5.82
2023-02-04T05:48:36.757Z,7.50
2023-02-04T05:51:03.559Z,5.63
2023-02-04T05:53:30.477Z,6.15
2023-02-04T05:55:56.874Z,7.65
2023-02-04T05:58:23.269Z,6.28
2023-02-04T06:00:49.720Z,5.68
2023-02-04T06:03:16.174Z,7.38
2023-02-04T06:05:44.128Z,5.85
2023-02-04T06:08:10.982Z,5.75
2023-02-04T06:10:37.371Z,6.15
2023-02-04T06:13:03.748Z,6.63
2023-02-04T06:15:30.110Z,6.13
2023-02-04T06:17:56.552Z,8.23
2023-02-04T06:20:22.939Z,7.38
2023-02-04T06:22:51.661Z,8.05
2023-02-04T06:25:18.860Z,7.97
2023-02-04T06:27:45.313Z,7.90
2023-02-04T06:30:12.150Z,8.55
2023-02-04T06:32:38.520Z,6.20
2023-02-04T06:35:05.230Z,7.35
2023-02-04T06:37:31.678Z,6.97
2023-02-04T06:39:58.242Z,8.10
2023-02-04T06:42:25.473Z,8.50
2023-02-04T06:44:52.483Z,7.72
2023-02-04T06:47:19.226Z,7.03
2023-02-04T06:49:45.724Z,7.10
2023-02-04T06:52:12.096Z,7.15
2023-02-04T06:54:38.574Z,8.35
2023-02-04T06:57:07.867Z,7.45
2023-02-04T06:59:38.091Z,6.13
2023-02-04T07:02:05.871Z,6.75
2023-02-04T07:04:32.255Z,7.45
2023-02-04T07:06:58.647Z,7.00
2023-02-04T07:09:25.372Z,6.72
2023-02-04T07:11:52.027Z,6.78
2023-02-04T07:14:18.846Z,7.38
2023-02-04T07:16:45.239Z,6.68
2023-02-04T07:19:11.615Z,6.28
2023-02-04T07:21:37.994Z,7.10
2023-02-04T07:24:04.424Z,6.75
2023-02-04T07:26:30.830Z,6.82
2023-02-04T07:28:57.218Z,6.28
2023-02-04T07:31:23.775Z,6.95
2023-02-04T07:33:50.190Z,7.28
2023-02-04T07:36:16.794Z,6.53
2023-02-04T07:38:43.198Z,6.43
2023-02-04T07:41:09.644Z,6.85
2023-02-04T07:43:36.079Z,8.00
2023-02-04T07:46:02.483Z,7.22
2023-02-04T07:48:28.963Z,5.57
2023-02-04T07:50:55.362Z,6.68
2023-02-04T07:53:21.728Z,7.25
2023-02-04T07:55:48.156Z,6.85
2023-02-04T07:58:14.518Z,5.70
2023-02-04T08:00:40.934Z,5.32
2023-02-04T08:03:07.420Z,6.93
2023-02-04T08:05:33.894Z,5.15
2023-02-04T08:08:01.904Z,6.55
2023-02-04T08:10:28.324Z,7.25
2023-02-04T08:12:54.749Z,5.68
2023-02-04T08:15:21.112Z,6.57
2023-02-04T08:17:47.507Z,5.68
2023-02-04T08:20:13.899Z,6.90
2023-02-04T08:22:40.453Z,7.13
2023-02-04T08:25:07.281Z,9.80
2023-02-04T08:27:33.748Z,7.57
2023-02-04T08:30:00.167Z,6.25
2023-02-04T08:32:27.709Z,7.68
2023-02-04T08:34:54.082Z,7.20
2023-02-04T08:37:20.511Z,6.90
2023-02-04T08:39:47.314Z,6.68
2023-02-04T08:42:13.793Z,7.20
2023-02-04T08:44:40.158Z,6.60
2023-02-04T08:47:06.674Z,7.75
2023-02-04T08:49:33.132Z,6.88
2023-02-04T08:51:59.559Z,7.07
2023-02-04T08:54:26.332Z,7.63
2023-02-04T08:56:52.735Z,6.82
2023-02-04T08:59:19.118Z,8.30
2023-02-04T09:01:51.021Z,8.88
2023-02-04T09:04:21.264Z,8.27
2023-02-04T09:06:47.892Z,7.13
2023-02-04T09:09:14.867Z,6.85
2023-02-04T09:11:41.964Z,6.90
2023-02-04T09:14:08.507Z,7.68
2023-02-04T09:16:35.295Z,6.72
2023-02-04T09:19:04.632Z,7.35
2023-02-04T09:21:32.236Z,7.43
2023-02-04T09:23:58.688Z,6.80
2023-02-04T09:26:25.086Z,7.78
2023-02-04T09:28:51.484Z,7.47
2023-02-04T09:31:18.814Z,8.02
2023-02-04T09:33:45.241Z,6.55
2023-02-04T09:36:11.599Z,7.53
2023-02-04T09:38:37.956Z,7.13
2023-02-04T09:41:07.616Z,10.02
2023-02-04T09:43:36.570Z,7.63
2023-02-04T09:46:03.393Z,10.60
2023-02-04T09:48:30.124Z,7.63
2023-02-04T09:51:05.759Z,8.93
2023-02-04T09:53:32.595Z,9.07
2023-02-04T09:55:58.977Z,8.00
2023-02-04T09:58:27.957Z,9.13
2023-02-04T10:01:06.184Z,8.23
2023-02-04T10:03:33.175Z,7.55
2023-02-04T10:05:59.536Z,9.63
2023-02-04T10:08:31.221Z,8.23
2023-02-04T10:10:58.210Z,7.05
2023-02-04T10:13:31.257Z,6.75
2023-02-04T10:15:58.651Z,7.72
2023-02-04T10:18:33.289Z,7.50
2023-02-04T10:21:36.723Z,7.45
2023-02-04T10:24:06.263Z,6.90
2023-02-04T10:26:33.085Z,6.95
2023-02-04T10:29:01.555Z,7.82
2023-02-04T10:31:27.929Z,9.68
2023-02-04T10:34:12.412Z,7.63
2023-02-04T10:36:40.402Z,11.05
2023-02-04T10:39:06.685Z,10.30
2023-02-04T10:41:34.294Z,13.50
2023-02-04T10:44:09.559Z,14.63
2023-02-04T10:46:35.947Z,16.02
2023-02-04T10:49:16.919Z,14.13
2023-02-04T10:51:43.389Z,15.68
2023-02-04T10:54:32.240Z,18.60
2023-02-04T10:57:17.794Z,18.73
2023-02-04T10:59:45.502Z,20.75
2023-02-04T11:02:41.630Z,17.33
2023-02-04T11:05:16.693Z,16.10
2023-02-04T11:07:43.656Z,14.27
2023-02-04T11:10:21.684Z,14.05
2023-02-04T11:12:54.174Z,13.35
2023-02-04T11:15:39.446Z,13.10
2023-02-04T11:18:30.751Z,13.27
2023-02-04T11:20:59.011Z,15.63
2023-02-04T11:23:34.626Z,15.13
2023-02-04T11:26:11.138Z,14.70
2023-02-04T11:28:40.745Z,14.45
2023-02-04T11:31:33.587Z,14.90
2023-02-04T11:34:26.149Z,12.77
2023-02-04T11:39:25.059Z,12.80
2023-02-04T11:41:51.426Z,12.93
2023-02-04T11:44:18.493Z,13.35
2023-02-04T11:46:50.127Z,13.07
2023-02-04T11:49:19.047Z,14.32
2023-02-04T11:51:46.477Z,13.95
2023-02-04T11:54:14.040Z,14.68
2023-02-04T11:56:40.451Z,11.55
2023-02-04T11:59:09.415Z,12.90
2023-02-04T12:01:35.875Z,12.85
2023-02-04T12:04:05.155Z,11.43
2023-02-04T12:06:34.227Z,12.48
2023-02-04T12:09:08.930Z,11.65
2023-02-04T12:11:35.452Z,10.48
2023-02-04T12:14:09.853Z,10.82
2023-02-04T12:16:51.473Z,10.40
2023-02-04T12:19:17.837Z,10.50
2023-02-04T12:21:44.340Z,10.45
2023-02-04T12:24:10.742Z,11.02
2023-02-04T12:26:37.153Z,9.35
2023-02-04T12:29:05.469Z,9.02
2023-02-04T12:31:32.929Z,9.35
2023-02-04T12:34:00.636Z,9.38
2023-02-04T12:36:29.525Z,7.97
2023-02-04T12:38:58.706Z,7.38
2023-02-04T12:41:25.926Z,8.57
2023-02-04T12:43:52.413Z,9.13
2023-02-04T12:46:18.831Z,7.22
2023-02-04T12:48:45.238Z,7.53
2023-02-04T12:51:11.771Z,6.82
2023-02-04T12:53:38.269Z,7.35
2023-02-04T12:56:05.072Z,7.03
2023-02-04T12:58:31.430Z,6.63
2023-02-04T13:00:57.879Z,8.85
2023-02-04T13:03:25.183Z,7.22
2023-02-04T13:05:51.568Z,5.32
2023-02-04T13:08:17.972Z,7.55
2023-02-04T13:10:44.330Z,7.10
2023-02-04T13:13:10.691Z,5.93
2023-02-04T13:15:37.058Z,5.65
2023-02-04T13:18:03.502Z,6.90
2023-02-04T13:20:30.202Z,7.07
2023-02-04T13:22:56.574Z,5.90
2023-02-04T13:25:22.936Z,6.53
2023-02-04T13:27:49.418Z,7.25
2023-02-04T13:30:16.003Z,6.20
2023-02-04T13:32:43.414Z,6.40
2023-02-04T13:35:09.805Z,5.65
2023-02-04T13:37:36.236Z,8.05
2023-02-04T13:40:02.606Z,8.30
2023-02-04T13:42:29.034Z,8.15
2023-02-04T13:44:55.557Z,10.25
2023-02-04T13:47:22.018Z,7.95
2023-02-04T13:49:48.420Z,14.45
2023-02-04T13:52:14.826Z,10.98
2023-02-04T13:54:41.186Z,12.50
2023-02-04T13:57:07.591Z,9.68
2023-02-04T13:59:33.973Z,8.50
2023-02-04T14:02:00.382Z,8.90
2023-02-04T14:04:27.044Z,7.95
2023-02-04T14:06:54.957Z,8.75
2023-02-04T14:09:21.735Z,7.57
2023-02-04T14:11:48.133Z,7.60
2023-02-04T14:14:14.523Z,9.88
2023-02-04T14:16:40.936Z,11.40
2023-02-04T14:19:07.478Z,6.88
2023-02-04T14:21:33.847Z,7.88
2023-02-04T14:24:01.324Z,9.63
2023-02-04T14:26:27.704Z,7.80
2023-02-04T14:28:54.090Z,8.15
2023-02-04T14:31:20.534Z,8.38
2023-02-04T14:33:49.121Z,6.75
2023-02-04T14:36:16.485Z,7.53
2023-02-04T14:38:42.928Z,8.30
2023-02-04T14:41:09.295Z,7.22
2023-02-04T14:43:37.160Z,9.00
2023-02-04T14:46:05.530Z,7.97
2023-02-04T14:48:32.145Z,8.32
2023-02-04T14:50:58.529Z,8.38
2023-02-04T14:53:24.935Z,7.35
2023-02-04T14:55:51.335Z,6.65
2023-02-04T14:58:18.325Z,8.52
2023-02-04T15:00:44.802Z,7.13
2023-02-04T15:03:11.175Z,8.85
2023-02-04T15:05:37.701Z,7.43
2023-02-04T15:08:04.693Z,8.02
2023-02-04T15:10:31.358Z,6.85
2023-02-04T15:12:58.192Z,6.60
2023-02-04T15:15:24.575Z,6.95
2023-02-04T15:17:50.998Z,6.95
2023-02-04T15:20:17.483Z,6.35
2023-02-04T15:22:43.849Z,6.53
2023-02-04T15:25:12.225Z,7.38
2023-02-04T15:27:38.601Z,7.15
2023-02-04T15:30:05.261Z,6.95
2023-02-04T15:32:31.822Z,6.97
2023-02-04T15:34:58.187Z,9.32
2023-02-04T15:37:24.586Z,9.80
2023-02-04T15:39:50.989Z,8.38
2023-02-04T15:42:17.367Z,8.82
2023-02-04T15:44:43.803Z,9.88
2023-02-04T15:47:10.183Z,9.70
2023-02-04T15:49:36.666Z,7.55
2023-02-04T15:52:04.739Z,7.00
2023-02-04T15:54:31.682Z,7.53
2023-02-04T15:56:58.271Z,7.18
2023-02-04T15:59:24.659Z,8.15
2023-02-04T16:01:51.135Z,9.52
2023-02-04T16:04:19.778Z,8.98
2023-02-04T16:06:57.874Z,8.15
2023-02-04T16:09:25.478Z,7.85
2023-02-04T16:11:51.848Z,7.65
2023-02-04T16:14:18.330Z,9.75
2023-02-04T16:16:44.730Z,9.35
2023-02-04T16:19:11.337Z,8.18
2023-02-04T16:21:37.756Z,8.02
2023-02-04T16:24:04.368Z,8.68
2023-02-04T16:26:32.166Z,17.10
2023-02-04T16:28:58.620Z,14.55
2023-02-04T16:31:25.129Z,26.48
2023-02-04T16:33:51.530Z,25.95
2023-02-04T16:36:18.587Z,16.42
2023-02-04T16:38:45.166Z,14.35
2023-02-04T16:41:14.081Z,11.38
2023-02-04T16:43:40.521Z,10.65
2023-02-04T16:46:06.925Z,12.25
2023-02-04T16:48:33.373Z,11.43
2023-02-04T16:50:59.743Z,13.30
2023-02-04T16:53:26.181Z,12.90
2023-02-04T16:55:52.603Z,9.75
2023-02-04T16:58:19.658Z,8.70
2023-02-04T17:00:46.096Z,7.50
2023-02-04T17:03:13.176Z,9.50
2023-02-04T17:05:40.332Z,9.88
2023-02-04T17:08:06.871Z,8.32
2023-02-04T17:10:51.881Z,9.00
2023-02-04T17:13:18.423Z,8.02
2023-02-04T17:15:44.907Z,7.00
2023-02-04T17:18:11.453Z,7.65
2023-02-04T17:20:37.849Z,7.10
2023-02-04T17:23:04.220Z,8.45
2023-02-04T17:25:30.968Z,7.38
2023-02-04T17:27:57.578Z,10.18
2023-02-04T17:30:24.054Z,11.60
2023-02-04T17:32:50.454Z,12.70
2023-02-04T17:35:17.335Z,14.20
2023-02-04T17:37:43.928Z,16.25
2023-02-04T17:40:13.926Z,19.73
2023-02-04T17:42:40.863Z,14.43
2023-02-04T17:45:10.400Z,14.23
2023-02-04T17:47:40.201Z,15.18
2023-02-04T17:50:09.908Z,13.90
2023-02-04T17:52:36.583Z,12.23
2023-02-04T17:55:09.456Z,15.98
2023-02-04T17:57:35.823Z,13.63
2023-02-04T18:00:02.249Z,13.90
2023-02-04T18:02:30.891Z,14.68
2023-02-04T18:05:08.120Z,14.40
2023-02-04T18:07:35.307Z,16.13
2023-02-04T18:10:17.974Z,15.05
2023-02-04T18:12:44.343Z,15.85
2023-02-04T18:15:30.845Z,15.55
2023-02-04T18:18:18.346Z,17.08
2023-02-04T18:20:44.739Z,15.35
2023-02-04T18:23:16.811Z,17.10
2023-02-04T18:25:43.567Z,16.73
2023-02-04T18:28:17.991Z,16.55
2023-02-04T18:30:44.998Z,17.25
2023-02-04T18:33:23.881Z,17.88
2023-02-04T18:35:51.610Z,18.90
2023-02-04T18:38:21.758Z,19.92
2023-02-04T18:40:49.231Z,21.88
2023-02-04T18:43:30.096Z,20.10
2023-02-04T18:45:59.799Z,21.27
2023-02-04T18:48:26.058Z,24.92
2023-02-04T18:50:56.952Z,27.80
2023-02-04T18:53:28.330Z,36.92
2023-02-04T18:55:58.878Z,27.90
2023-02-04T18:58:33.896Z,25.70
2023-02-04T19:01:01.354Z,24.63
2023-02-04T19:03:30.714Z,23.85
2023-02-04T19:06:01.851Z,21.75
2023-02-04T19:08:45.197Z,22.58
2023-02-04T19:11:39.439Z,23.48
2023-02-04T19:14:18.939Z,23.15
2023-02-04T19:16:46.930Z,21.63
2023-02-04T19:19:37.059Z,25.75
2023-02-04T19:22:22.208Z,23.40
2023-02-04T19:24:52.665Z,28.02
2023-02-04T19:27:24.816Z,27.13
2023-02-04T19:32:28.719Z,28.55
2023-02-04T19:34:58.927Z,28.65
2023-02-04T19:37:39.928Z,27.35
2023-02-04T19:40:39.156Z,22.10
2023-02-04T19:43:23.656Z,20.75
2023-02-04T19:45:51.027Z,21.20
2023-02-04T19:48:37.347Z,17.67
2023-02-04T19:51:28.044Z,19.05
2023-02-04T19:53:59.031Z,20.80
2023-02-04T19:56:39.483Z,24.13
2023-02-04T19:59:18.438Z,24.77
2023-02-04T20:01:44.882Z,24.60
2023-02-04T20:04:17.807Z,25.88
2023-02-04T20:06:44.551Z,29.80
2023-02-04T20:09:19.552Z,32.80
2023-02-04T20:11:52.999Z,30.02
2023-02-04T20:14:22.368Z,31.67
2023-02-04T20:17:00.634Z,28.40
2023-02-04T20:19:29.987Z,31.17
2023-02-04T20:22:17.734Z,30.85
2023-02-04T20:24:51.229Z,32.80
2023-02-04T20:27:39.274Z,35.25
2023-02-04T20:30:09.321Z,32.60
2023-02-04T20:32:40.011Z,28.75
2023-02-04T20:35:09.358Z,21.02
2023-02-04T20:37:36.442Z,19.63
2023-02-04T20:40:23.588Z,23.67
2023-02-04T20:42:53.976Z,20.27
2023-02-04T20:45:23.544Z,20.73
2023-02-04T20:47:53.107Z,20.75
2023-02-04T20:50:41.180Z,20.90
2023-02-04T20:53:17.342Z,21.98
2023-02-04T20:55:49.503Z,33.05
2023-02-04T21:00:42.967Z,29.73
2023-02-04T21:03:15.452Z,22.50
2023-02-04T21:05:41.864Z,21.35
2023-02-04T21:08:29.854Z,26.00
2023-02-04T21:10:57.273Z,26.00
2023-02-04T21:13:23.812Z,29.92
2023-02-04T21:15:50.284Z,30.98
2023-02-04T21:18:16.787Z,32.38
2023-02-04T21:20:43.157Z,32.03
2023-02-04T21:23:10.042Z,31.85
2023-02-04T21:25:37.517Z,34.05
2023-02-04T21:28:05.944Z,32.72
2023-02-04T21:30:32.684Z,31.52
2023-02-04T21:32:59.869Z,33.33
2023-02-04T21:35:26.670Z,33.80
2023-02-04T21:37:54.135Z,31.17
2023-02-04T21:40:21.938Z,31.48
2023-02-04T21:42:49.385Z,32.42
2023-02-04T21:45:17.569Z,33.33
2023-02-04T21:47:47.822Z,33.25
2023-02-04T21:50:15.224Z,32.28
2023-02-04T21:52:42.550Z,32.05
2023-02-04T21:55:10.704Z,30.83
2023-02-04T21:57:37.281Z,32.75
2023-02-04T22:00:05.676Z,34.45
2023-02-04T22:02:32.261Z,38.42
2023-02-04T22:04:58.664Z,35.08
2023-02-04T22:07:25.110Z,34.83
2023-02-04T22:09:51.552Z,33.00
2023-02-04T22:12:18.165Z,33.03
2023-02-04T22:14:44.672Z,34.67
2023-02-04T22:17:11.684Z,34.50
2023-02-04T22:19:38.220Z,32.30
2023-02-04T22:22:04.658Z,32.53
2023-02-04T22:24:31.318Z,30.58
2023-02-04T22:26:57.694Z,31.77
2023-02-04T22:29:28.618Z,32.67
2023-02-04T22:31:55.175Z,31.65
2023-02-04T22:34:22.577Z,33.08
2023-02-04T22:36:49.010Z,32.00
2023-02-04T22:39:15.466Z,30.23
2023-02-04T22:41:41.881Z,30.13
2023-02-04T22:44:08.335Z,33.22
2023-02-04T22:46:35.059Z,30.95
2023-02-04T22:49:01.548Z,32.35
2023-02-04T22:51:27.955Z,29.90
2023-02-04T22:53:54.456Z,29.80
2023-02-04T22:56:21.431Z,29.13
2023-02-04T22:58:47.823Z,32.55
2023-02-04T23:01:14.303Z,29.48
2023-02-04T23:03:40.826Z,29.65
2023-02-04T23:06:07.453Z,29.77
2023-02-04T23:08:33.859Z,29.10
2023-02-04T23:11:00.239Z,31.33
2023-02-04T23:13:26.793Z,30.77
2023-02-04T23:15:53.278Z,30.55
2023-02-04T23:18:19.907Z,27.67
2023-02-04T23:20:46.286Z,28.13
2023-02-04T23:23:17.518Z,28.92
2023-02-04T23:25:45.411Z,29.00
2023-02-04T23:28:12.131Z,26.85
2023-02-04T23:30:38.546Z,26.77
2023-02-04T23:33:05.325Z,28.10
2023-02-04T23:35:32.331Z,29.45
2023-02-04T23:37:59.266Z,29.42
2023-02-04T23:40:25.672Z,29.27
2023-02-04T23:42:52.050Z,29.00
2023-02-04T23:45:18.456Z,29.15
2023-02-04T23:47:44.821Z,27.73
2023-02-04T23:50:11.285Z,28.13
2023-02-04T23:52:37.746Z,28.20
2023-02-04T23:55:05.019Z,27.27
2023-02-04T23:57:31.567Z,26.85
2023-02-04T23:59:57.964Z,26.40
